Startpagina
METAR-TAF:

METAR-TAF

Vliegvelden :

Lahr, Duitsland

breedte: 48-22-09N, lengte: 007-49-40E, hoogte: 156 m

Actueel weer

Dit bericht is 8 uur en het 41 minuten geleden gemaakt, om 17:50 UTC
Wind 7 kt uit het noordoosten, variërend tussen het noorden en het oosten
Temperatuur 18°C
Vochtigheid 34%
Druk 1023 hPa
Zicht 10 km of meer
geen wolken onder 1500 m en geen cumulonimbus

METAR: EDTL 201750Z 04007KT 010V080 CAVOK 18/02 Q1023

Tijdstip: 04:31 (02:31 UTC)

Verwachting

Dit bericht is 9 uur en het 31 minuten geleden gemaakt, om 17:00 UTC
Verwachting geldig van 20 om 18 UTC tot 20 om 24 UTC
Wind 12 kt uit het noorden
Zicht 10 km of meer
geen wolken onder 1500 m en geen cumulonimbus
Wijzigt naar
van 20 om 18 UTC tot 20 om 21 UTC
Wind 4 kt uit het noordoosten

TAF: EDTL 201700Z 2018/2024 01012KT CAVOK BECMG 2018/2021 05004KT

Waarnemingen en weersverwachtingen van meer dan 4000 vliegvelden (METAR en TAF).

De beschikbare stations zijn de gele en rode punten op de kaart.

Ga met uw muis naar het station om de naam te zien.

Klik dan om waarnemingen en weersverwachtingen te zien.

kaart wijzigen: klik op de groene knoppen met een zwart kruis om in te zoomen, op de groene knop met een streepje om uit te zoomen of op de groene pijlen voor aangrenzende kaarten.


METAR-TAF: